<<    Januar 2014    >>
Datum    Temp.       Tempmin      Tempmax    Taup.       Taup.min      Taup.max    Feuchte    Feuchtemin    Feuchtemax    Druck    Druckmin    Druckmax    Regen    Wind    Benmax  
  01.01.2014  7,2    4,6    07:53    9,4    23:59  2,3    -3,0    00:41    4,6    23:59  71,9    53    00:00    89    08:47  1009,8    1003    23:59    1013    09:57  0,0  4,9  15,8  
  02.01.2014  9,4    5,9    23:33    11,3    13:39  5,1    3,1    23:04    8,4    12:09  74,8    67    15:51    87    12:00  1002,7    999    03:27    1008    23:59  0,0  4,9  16,9  
  03.01.2014  9,2    5,7    00:54    12,6    13:42  5,6    2,0    23:35    7,3    12:17  79,0    60    19:22    93    05:07  1006,2    1003    18:41    1009    23:26  0,0  4,7  15,5  
  04.01.2014  7,6    5,4    07:54    9,2    00:00  4,0    0,2    01:55    6,1    21:16  78,6    59    01:04    95    23:47  1004,8    997    20:46    1012    02:40  0,0  4,1  17,6  
  05.01.2014  6,7    3,8    09:41    8,6    13:34  3,5    0,3    15:32    7,4    05:05  81,6    59    14:24    98    02:54  1007,7    999    00:00    1014    17:06  0,0  2,8  14,0  
  06.01.2014  10,0    5,2    00:58    13,1    14:34  6,6    0,9    00:00    9,8    13:46  80,0    73    00:00    94    10:01  1007,7    1006    18:10    1011    00:00  6,6  5,7  30,6  
  07.01.2014  10,7    7,7    08:46    14,1    15:04  6,0    4,4    16:38    8,9    21:13  73,7    54    15:03    95    23:42  1013,1    1008    00:00    1015    10:10  0,0  3,1  14,4  
  08.01.2014  9,7    6,9    18:27    12,5    14:14  6,0    3,4    17:46    9,6    03:36  78,7    60    14:42    98    02:26  1017,5    1014    01:12    1020    10:09  0,9  2,1  22,3  
  09.01.2014  10,2    7,4    00:32    12,9    13:40  6,6    1,6    20:25    9,7    06:15  79,7    59    13:54    98    03:56  1009,6    1005    17:23    1016    00:00  1,9  5,0  26,6  
  10.01.2014  5,9    3,1    23:47    9,4    13:40  2,0    0,4    19:13    4,8    10:19  77,2    58    13:53    92    09:56  1017,1    1013    00:00    1019    09:11  0,0  2,4  17,6  
  11.01.2014  4,7    1,2    05:20    10,2    13:35  2,7    -0,2    05:15    6,4    12:55  87,6    67    14:19    97    08:27  1019,2    1016    07:40    1026    22:25  0,0  2,6  20,5  
  12.01.2014  3,5    1,1    08:47    6,8    13:48  0,8    -1,5    20:32    3,6    11:41  83,9    60    14:38    98    06:46  1024,2    1017    23:59    1028    04:23  0,0  2,2  17,3  
  13.01.2014  5,8    2,4    01:35    9,5    14:10  3,0    -1,3    01:35    5,6    11:46  82,9    70    15:04    93    07:04  1013,2    1011    16:37    1017    00:00  0,0  2,3  12,6  
  14.01.2014  6,5    4,2    19:33    9,8    13:45  3,8    0,7    19:24    5,8    09:59  83,9    67    13:49    98    08:49  1008,1    1005    13:39    1012    23:59  0,0  2,9  17,3  
  15.01.2014  4,6    2,3    07:17    6,2    13:15  2,1    -0,5    07:17    4,8    23:29  83,9    72    13:31    98    23:59  1009,4    1005    23:59    1013    06:38  1,1  3,9  19,4  
  16.01.2014  7,1    5,1    00:00    9,0    16:24  5,4    4,0    21:09    7,3    11:05  89,2    74    16:28    98    00:00  1002,2    999    14:37    1006    00:19  0,7  4,3  15,8  
  17.01.2014  8,8    7,3    01:49    10,7    14:29  3,3    1,7    16:01    5,0    01:02  69,0    55    14:18    82    00:00  1001,9    1001    00:00    1004    23:25  0,0  4,6  14,0  
  18.01.2014  6,9    4,9    08:37    9,0    14:29  1,5    0,5    20:42    2,5    11:54  69,1    58    14:55    78    07:19  1002,5    1000    17:53    1004    00:00  0,0  4,3  17,3  
  19.01.2014  6,0    4,5    22:02    8,8    14:02  2,4    1,5    00:58    3,2    13:18  78,0    66    14:22    86    22:27  1001,1    999    03:21    1004    21:06  0,0  3,1  17,3  
  20.01.2014  4,5    3,3    23:59    5,4    09:45  2,2    1,3    18:56    3,2    09:05  84,9    80    12:43    92    23:59  1006,0    1003    02:38    1011    23:36  0,0  1,9  10,4  
  21.01.2014  3,4    2,3    07:14    4,8    23:59  2,5    1,2    03:50    4,4    23:01  93,9    89    15:54    98    10:06  1013,1    1011    00:00    1015    23:37  0,0  1,5  9,4  
  22.01.2014  3,8    0,9    23:44    6,3    13:32  1,6    -1,1    20:57    4,2    00:00  86,3    70    13:55    97    07:10  1014,4    1013    04:51    1017    20:21  0,0  1,9  11,9  
  23.01.2014  2,1    -1,6    06:11    4,9    12:41  1,1    -1,9    06:11    4,1    11:15  93,3    77    13:15    98    23:59  1014,1    1009    21:05    1017    01:07  3,9  2,0  14,4  
  24.01.2014  4,3    3,1    03:04    6,4    14:07  3,1    2,7    08:07    4,0    13:13  92,3    80    14:37    98    00:00  1016,6    1010    00:00    1021    23:50  0,0  2,9  19,1  
  25.01.2014  4,0    1,3    05:17    6,8    15:20  1,5    -1,2    18:07    4,2    23:33  85,1    64    15:37    98    23:59  1017,8    1007    23:59    1021    00:00  3,9  2,8  20,2  
  26.01.2014  5,3    3,6    21:23    7,4    12:42  2,1    -1,4    16:06    4,5    01:34  81,1    58    15:08    98    00:00  1006,9    993    23:05    1013    06:05  14,2  6,1  28,8  
  27.01.2014  4,6    1,6    08:09    7,0    13:50  1,6    -1,8    17:03    5,3    03:01  82,1    59    14:38    98    00:00  997,3    993    00:20    1000    23:59  0,9  3,7  16,2  
  28.01.2014  4,7    2,7    23:59    7,8    15:16  -1,0    -3,4    18:14    1,5    02:25  68,5    48    14:16    88    05:17  999,6    998    15:20    1001    03:07  0,0  5,1  20,9  
  29.01.2014  2,5    1,0    06:16    5,3    14:01  -2,9    -4,9    19:57    -0,8    00:00  68,9    51    14:27    86    04:29  1002,8    1001    00:00    1006    21:04  0,0  4,1  24,5  
  30.01.2014  3,1    0,5    23:59    6,2    14:29  -3,4    -4,4    23:45    -2,5    09:44  63,0    51    13:25    72    08:33  1007,9    1006    00:00    1010    21:50  0,0  3,2  28,8  
  31.01.2014  3,2    -1,9    08:07    7,9    15:33  -2,0    -4,8    06:59    0,5    13:56  69,7    55    15:33    86    09:39  1008,8    1004    23:03    1011    00:09  0,0  2,6  16,9  
 
  Gesamt  6,0  -1,9            14,1            2,6  -4,9            9,8            79,7  48            98            1009,1  993            1028            34,0  3,5  30,6  
 
  Mittelwert  6,0  3,4            8,7            2,6  -0,0            4,9            79,7  63,6            92,8            1009,1  1004,8            1012,7            1,1  3,5  18,2  
  Minimum  2,1  -1,9            4,8            -3,4  -4,9            -2,5            63,0  48,0            72,0            997,3  993,0            1000,0            0,0  1,5  9,4  
  Maximum  10,7  7,7            14,1            6,6  4,4            9,8            93,9  89,0            98,0            1024,2  1017,0            1028,0            14,2  6,1  30,6  

  Heie Tage    Tmax >=30C     0  
  Sommertage    Tmax >=25C     0  
  Warme Tage    Tmax >=20C     0  
  Kalte Tage    Tmax  <10C     23  
  Frosttage    Tmin  <0C     2  
  Eistage    Tmax  <0C     0  
  Regentage > 0 mm    9  
  Regentage > 2 mm    4  
  Regentage > 10 mm    1  
  Regentage > 20 mm    0